Time;durP1;ratioP1;P1;durP2;ratioP2;P2;SDS_P1;SDS_P2;PMS_P1;PMS_P2;Temp;Humidity;BMP_temperature;BMP_pressure;BME280_temperature;BME280_humidity;BME280_pressure;Samples;Min_cycle;Max_cycle;Signal;HPM_P1;HPM_P2
2022/03/21 00:00:06;;;;;;;10.20;7.43;;;;;;;6.53;45.73;103091.22;2063756;28;30956;-69
2022/03/21 00:01:17;;;;;;;12.23;7.97;;;;;;;6.46;45.60;103096.41;2064007;28;20051;-68
2022/03/21 00:02:19;;;;;;;9.82;7.57;;;;;;;6.41;45.54;103092.69;2064224;28;20031;-68
2022/03/21 00:03:24;;;;;;;10.43;7.50;;;;;;;6.36;46.00;103093.41;2063461;28;44279;-68
2022/03/21 00:04:26;;;;;;;11.60;7.97;;;;;;;6.29;45.57;103098.53;2063105;28;46073;-68
2022/03/21 00:05:30;;;;;;;12.57;8.65;;;;;;;6.27;46.49;103097.59;2063378;28;40762;-68
2022/03/21 00:06:31;;;;;;;11.93;8.02;;;;;;;6.22;46.37;103085.03;2062806;28;44948;-68
2022/03/21 00:07:33;;;;;;;10.13;6.60;;;;;;;6.20;46.33;103090.28;2063415;28;42306;-68
2022/03/21 00:08:35;;;;;;;10.95;7.80;;;;;;;6.17;45.94;103079.56;2063218;28;45592;-69
2022/03/21 00:09:36;;;;;;;13.40;8.50;;;;;;;6.29;46.69;103085.25;2063009;28;38708;-69
2022/03/21 00:10:41;;;;;;;11.73;7.63;;;;;;;6.23;46.74;103086.84;2063734;28;43762;-68
2022/03/21 00:11:43;;;;;;;8.55;6.45;;;;;;;6.17;47.13;103099.94;2063214;28;45585;-69
2022/03/21 00:12:49;;;;;;;11.98;8.05;;;;;;;6.11;47.06;103103.31;2063338;28;45815;-69
2022/03/21 00:13:54;;;;;;;11.75;7.45;;;;;;;6.06;47.44;103111.16;2064556;28;20116;-67
2022/03/21 00:14:55;;;;;;;13.40;7.70;;;;;;;5.99;46.86;103109.16;2063062;28;46665;-68
2022/03/21 00:15:57;;;;;;;11.32;7.18;;;;;;;5.93;47.04;103112.50;2063085;28;43274;-68
2022/03/21 00:17:00;;;;;;;13.27;8.45;;;;;;;5.89;46.76;103112.38;2064168;28;20185;-68
2022/03/21 00:18:04;;;;;;;9.40;6.80;;;;;;;5.86;47.60;103109.59;2063212;28;45728;-68
2022/03/21 00:19:06;;;;;;;9.77;7.60;;;;;;;5.81;47.58;103103.22;2063019;28;43152;-68
2022/03/21 00:20:15;;;;;;;12.98;7.65;;;;;;;5.80;47.84;103096.13;2063871;28;20495;-68
2022/03/21 00:21:17;;;;;;;13.55;8.55;;;;;;;5.95;47.44;103109.88;2062906;28;42211;-68
2022/03/21 00:22:20;;;;;;;12.05;8.07;;;;;;;5.87;48.45;103096.38;2062838;28;44154;-68
2022/03/21 00:23:23;;;;;;;14.13;8.80;;;;;;;5.89;48.43;103102.63;2063382;28;43998;-67
2022/03/21 00:24:27;;;;;;;13.13;8.77;;;;;;;5.86;47.55;103097.19;2062716;28;45320;-68
2022/03/21 00:25:29;;;;;;;13.00;9.18;;;;;;;5.85;48.32;103094.50;2063399;28;22650;-68
2022/03/21 00:26:31;;;;;;;11.70;8.13;;;;;;;5.87;48.67;103108.75;2062661;28;42371;-68
2022/03/21 00:27:40;;;;;;;13.77;8.50;;;;;;;5.82;47.81;103108.59;2063310;28;44788;-68
2022/03/21 00:28:49;;;;;;;11.25;8.30;;;;;;;5.79;48.19;103111.16;2054748;28;20901;-68
2022/03/21 00:29:51;;;;;;;11.60;8.32;;;;;;;5.76;47.63;103111.06;2055901;28;41567;-69
2022/03/21 00:30:53;;;;;;;12.45;8.88;;;;;;;5.78;47.94;103109.38;2053912;28;46664;-69
2022/03/21 00:31:57;;;;;;;12.90;8.68;;;;;;;5.76;47.70;103108.41;2062180;28;43018;-69
2022/03/21 00:32:58;;;;;;;14.63;8.18;;;;;;;5.74;48.91;103105.72;2063229;28;44332;-68
2022/03/21 00:34:01;;;;;;;9.77;7.35;;;;;;;5.74;49.03;103100.41;2062039;28;44856;-68
2022/03/21 00:35:06;;;;;;;12.07;7.28;;;;;;;5.74;48.85;103100.41;2063387;28;20967;-68
2022/03/21 00:36:08;;;;;;;12.65;8.70;;;;;;;5.78;48.24;103095.16;2062950;28;45592;-68
2022/03/21 00:37:12;;;;;;;16.73;8.90;;;;;;;5.79;48.66;103095.19;2062348;28;44448;-68
2022/03/21 00:38:15;;;;;;;13.02;9.20;;;;;;;5.84;48.44;103092.72;2062171;28;45129;-68
2022/03/21 00:39:17;;;;;;;14.13;8.43;;;;;;;5.88;47.78;103090.16;2063013;28;43863;-67
2022/03/21 00:40:19;;;;;;;13.25;8.18;;;;;;;5.93;48.67;103088.56;2062374;28;44206;-68
2022/03/21 00:41:22;;;;;;;11.82;8.10;;;;;;;5.96;48.07;103092.19;2053936;28;44217;-67
2022/03/21 00:42:25;;;;;;;13.50;9.02;;;;;;;5.95;47.74;103096.59;2062381;28;46003;-68
2022/03/21 00:43:31;;;;;;;13.05;8.38;;;;;;;5.89;47.32;103097.31;2062469;28;40204;-68
2022/03/21 00:44:33;;;;;;;14.15;8.25;;;;;;;5.86;49.03;103101.63;2062966;28;39192;-68
2022/03/21 00:45:34;;;;;;;12.65;8.65;;;;;;;5.84;48.13;103104.22;2063432;28;42021;-69
2022/03/21 00:46:36;;;;;;;12.98;8.80;;;;;;;5.80;47.95;103101.44;2062991;28;44463;-70
2022/03/21 00:47:39;;;;;;;12.73;8.90;;;;;;;5.80;48.41;103101.44;2063320;28;41377;-68
2022/03/21 00:48:41;;;;;;;15.32;9.38;;;;;;;5.75;49.20;103098.63;2062560;28;43767;-68
2022/03/21 00:49:44;;;;;;;12.55;8.45;;;;;;;5.74;48.84;103087.09;2062687;28;47738;-68
2022/03/21 00:50:46;;;;;;;12.60;8.60;;;;;;;5.76;48.90;103089.81;2062718;28;42342;-69
2022/03/21 00:51:47;;;;;;;11.52;8.20;;;;;;;5.73;48.07;103097.69;2062775;28;44234;-68
2022/03/21 00:52:53;;;;;;;13.60;8.48;;;;;;;5.72;49.37;103099.44;2063087;28;39446;-67
2022/03/21 00:53:54;;;;;;;13.52;8.60;;;;;;;5.68;49.45;103097.53;2062440;28;46443;-67
2022/03/21 00:54:56;;;;;;;14.63;9.43;;;;;;;5.72;49.53;103104.75;2062656;28;36484;-67
2022/03/21 00:55:58;;;;;;;12.80;8.55;;;;;;;5.70;49.10;103100.22;2063223;28;42031;-68
2022/03/21 00:56:59;;;;;;;12.88;7.80;;;;;;;5.68;48.96;103102.84;2062750;28;43701;-68
2022/03/21 00:58:01;;;;;;;14.45;9.18;;;;;;;5.71;48.88;103105.59;2062400;28;44218;-68
2022/03/21 00:59:04;;;;;;;13.10;8.70;;;;;;;5.69;48.23;103107.31;2063290;28;41994;-68
2022/03/21 01:00:10;;;;;;;13.10;8.98;;;;;;;5.68;48.94;103112.56;2062939;28;44458;-66
2022/03/21 01:01:13;;;;;;;12.45;8.18;;;;;;;5.65;49.56;103121.38;2062796;28;45680;-70
2022/03/21 01:02:15;;;;;;;13.27;8.90;;;;;;;5.60;49.24;103120.31;2062676;28;45281;-68
2022/03/21 01:03:17;;;;;;;13.60;8.90;;;;;;;5.58;49.77;103124.66;2062678;28;46866;-67
2022/03/21 01:04:19;;;;;;;12.80;8.45;;;;;;;5.54;48.66;103118.34;2063170;28;34474;-69
2022/03/21 01:05:22;;;;;;;14.45;8.40;;;;;;;5.50;49.05;103123.50;2062195;28;44495;-67
2022/03/21 01:06:24;;;;;;;11.52;8.20;;;;;;;5.48;50.28;103123.44;2063573;28;20125;-68
2022/03/21 01:07:26;;;;;;;12.70;7.88;;;;;;;5.45;50.42;103117.13;2062637;28;45838;-68
2022/03/21 01:08:28;;;;;;;10.52;7.30;;;;;;;5.42;50.39;103125.00;2062944;28;46167;-68
2022/03/21 01:09:29;;;;;;;16.35;8.60;;;;;;;5.44;49.21;103115.34;2062678;28;43433;-70
2022/03/21 01:10:33;;;;;;;11.25;8.57;;;;;;;5.43;49.17;103126.81;2063004;28;43677;-68
2022/03/21 01:11:34;;;;;;;11.52;7.72;;;;;;;5.41;49.22;103128.50;2062942;28;45782;-70
2022/03/21 01:12:36;;;;;;;11.75;8.02;;;;;;;5.43;49.19;103124.16;2062600;28;45511;-69
2022/03/21 01:13:42;;;;;;;12.02;8.02;;;;;;;5.41;50.30;103124.09;2062328;28;46144;-70
2022/03/21 01:14:45;;;;;;;13.80;8.90;;;;;;;5.44;49.52;103118.88;2063001;28;41998;-67
2022/03/21 01:15:47;;;;;;;16.02;8.20;;;;;;;5.45;49.30;103112.72;2062828;28;44318;-70
2022/03/21 01:16:53;;;;;;;13.05;9.10;;;;;;;5.48;49.43;103114.59;2062880;28;45765;-69
2022/03/21 01:17:57;;;;;;;13.95;8.80;;;;;;;5.50;49.97;103112.88;2062777;28;42645;-69
2022/03/21 01:18:59;;;;;;;15.23;8.60;;;;;;;5.49;48.55;103111.97;2062835;28;45165;-69
2022/03/21 01:20:04;;;;;;;11.88;8.38;;;;;;;5.48;49.28;103117.25;2063698;28;20923;-70
2022/03/21 01:21:06;;;;;;;11.85;7.70;;;;;;;5.48;49.69;103114.59;2063199;28;20047;-68
2022/03/21 01:22:08;;;;;;;11.75;7.90;;;;;;;5.48;49.77;103114.59;2063264;28;33375;-70
2022/03/21 01:23:11;;;;;;;14.02;8.32;;;;;;;5.45;49.74;103119.78;2062735;28;43367;-67
2022/03/21 01:24:13;;;;;;;13.55;8.63;;;;;;;5.41;49.06;103120.53;2062793;28;45398;-68
2022/03/21 01:25:15;;;;;;;11.80;8.40;;;;;;;5.39;49.32;103122.25;2063305;28;20050;-68
2022/03/21 01:26:17;;;;;;;11.80;8.27;;;;;;;5.38;49.69;103116.00;2062802;28;37499;-69
2022/03/21 01:27:19;;;;;;;12.60;8.70;;;;;;;5.43;49.85;103117.06;2063603;28;20046;-69
2022/03/21 01:28:21;;;;;;;13.25;9.23;;;;;;;5.41;49.91;103123.19;2062783;28;43422;-66
2022/03/21 01:29:22;;;;;;;12.73;8.48;;;;;;;5.40;50.21;103111.69;2062746;28;42952;-69
2022/03/21 01:30:24;;;;;;;14.05;8.55;;;;;;;5.38;49.61;103112.47;2062567;28;44870;-68
2022/03/21 01:31:28;;;;;;;14.23;8.13;;;;;;;5.36;49.45;103123.03;2062481;28;45520;-69
2022/03/21 01:32:32;;;;;;;12.43;8.77;;;;;;;5.34;50.58;103115.00;2062706;28;46945;-69
2022/03/21 01:33:35;;;;;;;11.13;7.60;;;;;;;5.32;50.46;103108.75;2062692;28;42356;-68
2022/03/21 01:34:36;;;;;;;12.93;8.40;;;;;;;5.31;49.68;103106.03;2062402;28;37660;-68
2022/03/21 01:35:38;;;;;;;11.30;8.68;;;;;;;5.29;50.28;103108.66;2062988;28;46020;-68
2022/03/21 01:36:40;;;;;;;12.70;8.57;;;;;;;5.26;49.60;103107.66;2063805;28;20046;-68
2022/03/21 01:37:42;;;;;;;13.20;8.40;;;;;;;5.25;50.14;103106.72;2064296;28;46545;-68
2022/03/21 01:38:44;;;;;;;14.73;8.52;;;;;;;5.27;50.25;103110.34;2063909;28;44300;-67
2022/03/21 01:39:45;;;;;;;16.63;9.23;;;;;;;5.24;50.22;103110.25;2064511;28;39477;-68
2022/03/21 01:40:47;;;;;;;13.43;8.63;;;;;;;5.23;50.90;103113.75;2063749;28;45148;-68
2022/03/21 01:41:49;;;;;;;13.57;9.00;;;;;;;5.26;50.55;103119.16;2063839;28;43689;-69
2022/03/21 01:42:51;;;;;;;12.57;9.30;;;;;;;5.28;50.73;103116.56;2064441;28;36985;-68
2022/03/21 01:44:04;;;;;;;14.15;8.80;;;;;;;5.23;50.69;103111.09;2064166;28;45815;-69
2022/03/21 01:45:07;;;;;;;15.63;8.63;;;;;;;5.21;50.66;103115.44;2059919;28;43719;-67
2022/03/21 01:46:08;;;;;;;14.20;9.15;;;;;;;5.23;50.03;103102.22;2064321;28;45176;-68
2022/03/21 01:47:10;;;;;;;14.93;8.95;;;;;;;5.25;50.03;103095.22;2064456;28;34970;-68
2022/03/21 01:48:12;;;;;;;10.93;8.15;;;;;;;5.26;50.25;103092.63;2064044;28;42222;-67
2022/03/21 01:49:14;;;;;;;15.10;9.05;;;;;;;5.32;50.10;103086.59;2062784;28;47133;-68
2022/03/21 01:50:16;;;;;;;13.63;8.68;;;;;;;5.35;50.18;103087.59;2056001;28;20915;-69
2022/03/21 01:51:18;;;;;;;13.57;8.80;;;;;;;5.38;49.67;103088.56;2055509;28;40925;-69
2022/03/21 01:52:21;;;;;;;14.48;8.63;;;;;;;5.37;49.36;103085.00;2063499;28;41991;-68
2022/03/21 01:56:04;;;;;;;12.23;8.50;;;;;;;5.45;49.38;103090.56;2063877;28;45289;-69
2022/03/21 01:57:07;;;;;;;11.55;8.07;;;;;;;5.42;50.08;103082.47;2064234;28;38942;-69
2022/03/21 01:58:13;;;;;;;12.82;8.48;;;;;;;5.38;49.90;103083.25;2064225;28;20092;-69
2022/03/21 01:59:17;;;;;;;10.90;8.35;;;;;;;5.41;48.88;103080.69;2063453;28;42641;-68
2022/03/21 02:00:18;;;;;;;12.10;7.53;;;;;;;5.35;48.86;103092.03;2063620;28;45465;-67
2022/03/21 02:01:21;;;;;;;11.52;8.40;;;;;;;5.35;50.11;103095.56;2064748;28;20054;-67
2022/03/21 02:02:23;;;;;;;13.02;8.48;;;;;;;5.34;49.09;103106.16;2064061;28;37588;-69
2022/03/21 02:03:24;;;;;;;11.50;8.02;;;;;;;5.26;49.21;103108.56;2064175;28;43658;-69
2022/03/21 02:04:26;;;;;;;14.13;8.07;;;;;;;5.20;50.56;103112.75;2063780;28;44342;-68
2022/03/21 02:05:28;;;;;;;13.90;7.93;;;;;;;5.12;50.58;103109.81;2056041;28;32866;-69
2022/03/21 02:06:30;;;;;;;10.13;7.35;;;;;;;5.06;50.91;103117.56;2063247;28;43058;-68
2022/03/21 02:07:33;;;;;;;13.38;7.63;;;;;;;5.01;50.26;103112.09;2065126;28;20043;-69
2022/03/21 02:08:34;;;;;;;10.90;8.07;;;;;;;4.95;51.67;103114.53;2063950;28;46005;-67
2022/03/21 02:09:36;;;;;;;14.13;8.18;;;;;;;4.88;50.52;103110.78;2063913;28;45234;-68
2022/03/21 02:10:38;;;;;;;11.13;7.68;;;;;;;4.86;51.74;103116.88;2064296;28;34842;-68
2022/03/21 02:11:41;;;;;;;12.70;8.55;;;;;;;4.83;52.16;103120.31;2063975;28;43852;-68
2022/03/21 02:12:43;;;;;;;13.93;8.85;;;;;;;4.80;52.13;103117.56;2065069;28;20050;-67
2022/03/21 02:13:45;;;;;;;13.23;8.40;;;;;;;4.80;51.48;103122.84;2064111;28;38702;-70
2022/03/21 02:14:47;;;;;;;11.20;8.50;;;;;;;4.77;51.46;103117.44;2063742;28;45528;-69
2022/03/21 02:15:49;;;;;;;11.60;7.63;;;;;;;4.73;52.68;103115.53;2063654;28;44673;-69
2022/03/21 02:16:51;;;;;;;14.73;8.68;;;;;;;4.72;51.81;103105.75;2064128;28;42962;-68
2022/03/21 02:18:00;;;;;;;13.10;8.30;;;;;;;4.74;51.86;103104.06;2064099;28;39714;-68
2022/03/21 02:19:13;;;;;;;12.60;8.75;;;;;;;4.79;52.50;103094.50;2063415;28;44643;-68
2022/03/21 02:20:18;;;;;;;13.57;8.30;;;;;;;4.86;51.94;103090.31;2057687;28;39958;-69
2022/03/21 02:21:37;;;;;;;13.32;8.32;;;;;;;4.98;51.10;103091.66;2062897;28;44958;-68
2022/03/21 02:23:07;;;;;;;10.98;7.57;;;;;;;4.96;50.39;103092.47;2063921;28;42131;-69
2022/03/21 02:24:20;;;;;;;;;;;;;;;4.94;50.99;103094.16;2064667;28;44090;-68
2022/03/21 02:25:31;;;;;;;13.73;7.95;;;;;;;4.95;51.84;103102.19;2064021;28;46243;-69
2022/03/21 02:26:32;;;;;;;12.27;7.78;;;;;;;4.93;51.73;103100.31;2064325;28;43751;-68
2022/03/21 02:27:35;;;;;;;11.77;7.72;;;;;;;4.92;51.25;103098.53;2063861;28;45607;-70
2022/03/21 02:28:38;;;;;;;11.85;7.95;;;;;;;4.94;51.22;103095.06;2062921;28;45613;-68
2022/03/21 02:29:43;;;;;;;13.52;8.13;;;;;;;4.93;51.13;103093.22;2063422;28;20142;-68
2022/03/21 02:30:49;;;;;;;13.20;7.53;;;;;;;4.95;50.96;103096.88;2063878;28;44927;-68
2022/03/21 02:31:51;;;;;;;13.93;7.57;;;;;;;4.97;50.41;103089.88;2063641;28;42349;-68
2022/03/21 02:32:54;;;;;;;12.15;6.90;;;;;;;4.95;50.66;103096.88;2064110;28;43938;-68
2022/03/21 02:33:56;;;;;;;12.00;8.48;;;;;;;4.96;50.56;103092.47;2063050;28;44955;-69
2022/03/21 02:34:58;;;;;;;11.40;7.90;;;;;;;4.97;50.99;103095.19;2055521;28;44557;-69
2022/03/21 02:36:03;;;;;;;11.30;7.57;;;;;;;4.98;50.35;103088.09;2063866;28;40693;-69
2022/03/21 02:37:13;;;;;;;12.43;7.93;;;;;;;5.00;50.27;103089.06;2070668;28;41944;-68
2022/03/21 02:38:16;;;;;;;14.30;8.70;;;;;;;5.00;51.30;103089.06;2063291;28;44153;-67
2022/03/21 02:39:19;;;;;;;11.88;8.13;;;;;;;4.99;50.25;103089.91;2057042;28;43912;-68
2022/03/21 02:40:21;;;;;;;11.38;7.35;;;;;;;5.00;50.02;103088.16;2064091;28;20070;-68
2022/03/21 02:41:22;;;;;;;12.55;7.82;;;;;;;4.98;50.41;103096.97;2063220;28;43120;-68
2022/03/21 02:42:24;;;;;;;13.02;8.00;;;;;;;4.97;50.94;103095.19;2055568;28;32859;-66
2022/03/21 02:43:26;;;;;;;12.00;8.15;;;;;;;4.98;51.09;103096.97;2062655;28;45511;-69
2022/03/21 02:44:39;;;;;;;9.40;7.03;;;;;;;4.96;51.36;103098.66;2063793;28;45542;-68
2022/03/21 02:45:41;;;;;;;13.82;7.97;;;;;;;4.96;50.07;103098.66;2063582;28;45484;-68
2022/03/21 02:46:43;;;;;;;10.32;7.30;;;;;;;4.95;50.41;103095.94;2063524;28;46590;-68
2022/03/21 02:47:45;;;;;;;15.15;7.88;;;;;;;4.92;51.41;103107.38;2064239;28;42962;-68
2022/03/21 02:48:49;;;;;;;9.88;7.45;;;;;;;4.90;50.45;103097.53;2063922;28;22378;-68
2022/03/21 02:49:51;;;;;;;12.18;7.20;;;;;;;4.87;51.28;103101.00;2063764;28;45146;-68
2022/03/21 02:51:00;;;;;;;11.75;7.43;;;;;;;4.85;51.66;103109.78;2063074;28;41604;-68
2022/03/21 02:52:05;;;;;;;13.82;8.10;;;;;;;4.84;50.87;103108.84;2063786;28;44957;-68
2022/03/21 02:53:11;;;;;;;10.40;7.78;;;;;;;4.83;51.00;103116.75;2074996;23;47256;-66
2022/03/21 02:54:15;;;;;;;12.00;7.57;;;;;;;4.81;51.02;103106.09;2064819;28;45854;-66
2022/03/21 02:55:19;;;;;;;10.05;7.45;;;;;;;4.78;51.01;103101.56;2062884;28;37204;-66
2022/03/21 02:56:23;;;;;;;13.77;8.05;;;;;;;4.76;50.90;103105.03;2055614;28;42158;-66
2022/03/21 02:57:25;;;;;;;11.10;8.05;;;;;;;4.75;51.61;103103.22;2056026;28;20110;-66
2022/03/21 02:58:26;;;;;;;11.40;7.75;;;;;;;4.70;51.73;103097.75;2055070;28;44253;-66
2022/03/21 02:59:28;;;;;;;11.88;7.57;;;;;;;4.74;52.02;103101.41;2055392;28;44813;-66
2022/03/21 03:00:30;;;;;;;13.02;7.22;;;;;;;4.69;51.23;103097.69;2055640;28;39820;-67
2022/03/21 03:01:32;;;;;;;11.63;7.18;;;;;;;4.65;52.18;103096.69;2055291;28;42560;-66
2022/03/21 03:02:34;;;;;;;12.32;7.55;;;;;;;4.66;51.15;103098.47;2055633;28;45407;-65
2022/03/21 03:03:36;;;;;;;13.50;7.85;;;;;;;4.66;51.86;103094.91;2055308;28;44823;-66
2022/03/21 03:04:41;;;;;;;11.43;7.65;;;;;;;4.62;51.95;103100.97;2055845;28;20122;-65
2022/03/21 03:05:42;;;;;;;10.88;7.60;;;;;;;4.65;51.61;103095.75;2054756;28;46126;-66
2022/03/21 03:06:44;;;;;;;11.95;7.75;;;;;;;4.67;51.13;103094.09;2055641;28;43462;-66
2022/03/21 03:07:46;;;;;;;11.45;7.57;;;;;;;4.65;51.09;103099.34;2055017;28;45138;-66
2022/03/21 03:08:47;;;;;;;10.70;7.10;;;;;;;4.63;51.62;103094.81;2047402;28;37021;-66
2022/03/21 03:09:49;;;;;;;12.02;7.05;;;;;;;4.67;51.71;103091.44;2047295;28;43768;-66
2022/03/21 03:10:51;;;;;;;12.32;7.60;;;;;;;4.66;51.04;103100.22;2055130;28;44744;-66
2022/03/21 03:11:52;;;;;;;11.43;7.57;;;;;;;4.66;50.89;103108.19;2055335;28;42606;-66
2022/03/21 03:12:54;;;;;;;12.63;7.45;;;;;;;4.66;51.35;103108.19;2054943;28;43139;-65
2022/03/21 03:13:58;;;;;;;10.55;7.10;;;;;;;4.63;50.92;103114.31;2056038;28;20055;-66
2022/03/21 03:15:02;;;;;;;11.40;7.45;;;;;;;4.63;51.38;103114.31;2051643;28;42337;-66
2022/03/21 03:16:07;;;;;;;10.40;7.32;;;;;;;4.66;51.74;103116.16;2046845;28;44281;-66
2022/03/21 03:17:08;;;;;;;12.63;7.90;;;;;;;4.66;51.50;103118.78;2047402;28;37974;-66
2022/03/21 03:18:10;;;;;;;10.43;7.28;;;;;;;4.66;51.02;103108.19;2047559;28;44219;-66
2022/03/21 03:19:12;;;;;;;11.05;7.18;;;;;;;4.67;51.50;103110.00;2047252;28;46468;-66
2022/03/21 03:20:13;;;;;;;11.88;7.55;;;;;;;4.66;51.70;103109.06;2047620;28;41143;-66
2022/03/21 03:21:20;;;;;;;13.30;7.32;;;;;;;4.67;51.56;103112.66;2047689;28;42962;-65
2022/03/21 03:22:24;;;;;;;9.60;7.30;;;;;;;4.69;51.00;103108.31;2047899;28;36070;-66
2022/03/21 03:23:31;;;;;;;10.05;7.32;;;;;;;4.66;51.42;103102.88;2048158;28;44030;-66
2022/03/21 03:24:33;;;;;;;11.45;6.50;;;;;;;4.66;51.48;103106.44;2049406;28;44699;-66
2022/03/21 03:25:35;;;;;;;11.80;7.47;;;;;;;4.67;51.50;103104.69;2047373;28;42511;-66
2022/03/21 03:26:37;;;;;;;9.85;7.00;;;;;;;4.67;51.45;103104.69;2047040;28;43046;-66
2022/03/21 03:27:42;;;;;;;10.38;7.47;;;;;;;4.67;51.71;103107.34;2047283;28;45079;-66
2022/03/21 03:28:44;;;;;;;9.52;7.43;;;;;;;4.68;50.91;103111.78;2047481;28;45483;-66
2022/03/21 03:29:47;;;;;;;12.10;7.28;;;;;;;4.66;51.51;103110.84;2047366;28;46418;-66
2022/03/21 03:30:49;;;;;;;12.02;6.85;;;;;;;4.68;51.17;103110.03;2046948;28;42725;-66
2022/03/21 03:31:52;;;;;;;12.70;7.43;;;;;;;4.68;51.32;103114.44;2039279;28;45672;-66
2022/03/21 03:32:54;;;;;;;10.10;7.13;;;;;;;4.67;51.43;103110.91;2047171;28;43178;-66
2022/03/21 03:33:57;;;;;;;11.55;6.93;;;;;;;4.69;50.91;103113.63;2047901;28;43903;-66
2022/03/21 03:34:59;;;;;;;9.35;6.35;;;;;;;4.67;50.69;103110.91;2047338;28;45474;-66
2022/03/21 03:36:03;;;;;;;12.77;6.88;;;;;;;4.67;51.62;103110.00;2046467;28;44880;-66
2022/03/21 03:37:05;;;;;;;17.42;7.32;;;;;;;4.66;50.97;103116.16;2046503;28;45300;-66
2022/03/21 03:38:07;;;;;;;9.18;6.60;;;;;;;4.66;51.38;103118.78;2046738;28;46568;-66
2022/03/21 03:39:13;;;;;;;10.60;7.53;;;;;;;4.63;50.89;103118.69;2047775;28;20860;-66
2022/03/21 03:40:14;;;;;;;10.98;7.05;;;;;;;4.63;51.24;103118.69;2046824;28;44300;-66
2022/03/21 03:41:16;;;;;;;11.20;6.97;;;;;;;4.62;52.09;103116.88;2047314;28;44376;-66
2022/03/21 03:42:20;;;;;;;10.73;7.28;;;;;;;4.59;51.73;103121.25;2046783;28;43904;-66
2022/03/21 03:43:22;;;;;;;10.73;7.43;;;;;;;4.57;51.16;103119.34;2047220;28;41295;-66
2022/03/21 03:44:25;;;;;;;10.38;7.03;;;;;;;4.52;51.90;103118.28;2048119;28;29563;-66
2022/03/21 03:45:27;;;;;;;8.30;6.30;;;;;;;4.48;51.90;103126.97;2047754;28;20036;-66
2022/03/21 03:46:29;;;;;;;10.30;6.85;;;;;;;4.43;51.86;103120.59;2047710;28;44433;-66
2022/03/21 03:47:31;;;;;;;9.75;6.35;;;;;;;4.38;51.64;103123.09;2047263;28;43344;-66
2022/03/21 03:48:32;;;;;;;8.45;6.22;;;;;;;4.33;52.45;103122.91;2047165;28;41688;-66
2022/03/21 03:49:34;;;;;;;12.07;6.80;;;;;;;4.31;51.97;103123.69;2047618;28;41237;-66
2022/03/21 03:50:36;;;;;;;13.38;6.93;;;;;;;4.26;52.97;103125.28;2047267;28;45247;-66
2022/03/21 03:51:38;;;;;;;14.35;7.53;;;;;;;4.23;52.90;103127.78;2046467;28;44973;-65
2022/03/21 03:52:45;;;;;;;10.57;6.70;;;;;;;4.20;53.67;103132.16;2038744;28;45396;-66
2022/03/21 03:53:47;;;;;;;11.13;7.10;;;;;;;4.17;53.45;103134.66;2046897;28;41984;-66
2022/03/21 03:54:50;;;;;;;9.98;6.75;;;;;;;4.15;53.33;103136.34;2047466;28;43927;-66
2022/03/21 03:55:52;;;;;;;11.65;6.70;;;;;;;4.15;53.63;103127.50;2047349;28;44264;-66
2022/03/21 03:56:54;;;;;;;11.55;7.32;;;;;;;4.14;53.61;103129.22;2047283;28;45035;-66
2022/03/21 03:57:55;;;;;;;15.82;7.70;;;;;;;4.20;53.16;103123.28;2047611;28;40976;-66
2022/03/21 03:58:57;;;;;;;11.57;7.82;;;;;;;4.18;52.87;103123.22;2054598;28;42682;-66
2022/03/21 03:59:59;;;;;;;13.55;7.07;;;;;;;4.17;52.92;103129.34;2054302;28;44260;-66
2022/03/21 04:01:00;;;;;;;11.65;8.00;;;;;;;4.18;53.69;103119.66;2046591;28;44079;-66
2022/03/21 04:02:03;;;;;;;12.70;7.53;;;;;;;4.18;53.22;103120.56;2046437;28;41688;-66
2022/03/21 04:04:25;;;;;;;12.02;7.43;;;;;;;4.16;53.27;103124.91;2047256;28;41677;-66
2022/03/21 04:05:27;;;;;;;9.70;7.25;;;;;;;4.13;53.02;103129.19;2046871;28;45961;-65
2022/03/21 04:06:29;;;;;;;11.90;7.00;;;;;;;4.12;53.53;103125.63;2047239;28;45220;-66
2022/03/21 04:07:30;;;;;;;9.55;7.22;;;;;;;4.08;53.85;103123.69;2047053;28;45327;-66
2022/03/21 04:08:35;;;;;;;8.00;6.55;;;;;;;4.06;53.77;103125.41;2046901;28;41975;-66
2022/03/21 04:09:37;;;;;;;9.73;7.25;;;;;;;4.04;54.01;103126.16;2047073;28;39361;-66
2022/03/21 04:10:39;;;;;;;8.82;6.30;;;;;;;4.01;53.85;103124.31;2047545;28;45846;-67
2022/03/21 04:11:40;;;;;;;11.00;6.90;;;;;;;3.99;53.75;103126.00;2047114;28;44995;-66
2022/03/21 04:12:48;;;;;;;10.88;7.22;;;;;;;3.97;54.25;103127.69;2047443;28;44935;-66
2022/03/21 04:13:49;;;;;;;10.18;7.13;;;;;;;3.93;54.29;103126.66;2047171;28;44663;-66
2022/03/21 04:14:53;;;;;;;11.00;7.13;;;;;;;3.95;54.79;103127.63;2047004;28;43185;-66
2022/03/21 04:15:56;;;;;;;9.68;6.97;;;;;;;3.99;54.26;103128.66;2047682;28;20052;-66
2022/03/21 04:16:57;;;;;;;10.43;6.18;;;;;;;3.92;54.24;103129.25;2053901;28;42928;-66
2022/03/21 04:18:00;;;;;;;9.25;6.40;;;;;;;3.88;54.23;103119.38;2054527;28;45135;-66
2022/03/21 04:19:02;;;;;;;11.23;7.40;;;;;;;3.83;54.00;103128.03;2047742;28;41949;-66
2022/03/21 04:20:05;;;;;;;10.75;6.32;;;;;;;3.83;53.89;103122.72;2046587;28;45554;-66
2022/03/21 04:21:07;;;;;;;11.00;7.10;;;;;;;3.83;54.24;103128.03;2038938;28;44929;-66
2022/03/21 04:22:09;;;;;;;12.02;7.50;;;;;;;3.84;54.73;103126.31;2046328;28;42650;-66
2022/03/21 04:23:11;;;;;;;11.07;7.18;;;;;;;3.83;54.37;103128.03;2047340;28;34024;-66
2022/03/21 04:24:13;;;;;;;12.55;7.20;;;;;;;3.81;54.75;103129.72;2046797;28;44428;-67
2022/03/21 04:25:15;;;;;;;9.25;6.75;;;;;;;3.81;54.58;103129.72;2038745;29;45099;-66
2022/03/21 04:26:16;;;;;;;10.23;6.53;;;;;;;3.77;54.12;103125.16;2039102;28;41153;-66
2022/03/21 04:27:18;;;;;;;10.45;6.85;;;;;;;3.71;54.42;103127.53;2047186;28;43369;-66
2022/03/21 04:28:20;;;;;;;9.77;6.68;;;;;;;3.67;54.59;103122.94;2038381;29;44111;-66
2022/03/21 04:29:24;;;;;;;11.65;6.07;;;;;;;3.65;55.20;103129.03;2038887;28;45710;-66
2022/03/21 04:30:26;;;;;;;8.85;6.03;;;;;;;3.59;54.95;103127.06;2047057;28;45138;-66
2022/03/21 04:31:28;;;;;;;8.45;5.75;;;;;;;3.54;54.91;103129.50;2046757;28;44650;-66
2022/03/21 04:32:29;;;;;;;11.88;6.80;;;;;;;3.52;55.43;103131.19;2046197;28;42466;-66
2022/03/21 04:33:31;;;;;;;11.05;7.03;;;;;;;3.57;55.46;103127.00;2038550;28;43037;-66
2022/03/21 04:34:33;;;;;;;12.45;7.43;;;;;;;3.50;55.47;103124.91;2046436;28;44399;-66
2022/03/21 04:35:36;;;;;;;11.50;7.30;;;;;;;3.53;55.17;103132.06;2047860;28;20032;-66
2022/03/21 04:36:39;;;;;;;10.18;7.13;;;;;;;3.57;55.33;103126.06;2046065;28;43915;-66
2022/03/21 04:37:41;;;;;;;12.10;7.55;;;;;;;3.57;55.57;103136.66;2046179;28;41797;-65
2022/03/21 04:38:43;;;;;;;11.15;7.30;;;;;;;3.55;55.09;103133.03;2047244;28;45392;-67
2022/03/21 04:39:45;;;;;;;11.90;7.55;;;;;;;3.59;55.04;103127.06;2047505;28;35196;-66
2022/03/21 04:40:49;;;;;;;9.63;6.13;;;;;;;3.55;55.32;103135.69;2046837;28;42772;-66
2022/03/21 04:41:51;;;;;;;10.82;6.80;;;;;;;3.52;55.54;103136.47;2047643;28;20155;-65
2022/03/21 04:42:57;;;;;;;9.77;6.85;;;;;;;3.52;55.06;103140.88;2055039;28;20051;-66
2022/03/21 04:43:59;;;;;;;10.77;6.57;;;;;;;3.52;55.15;103132.94;2054244;28;44389;-66
2022/03/21 04:45:01;;;;;;;10.05;6.63;;;;;;;3.60;54.32;103131.50;2054140;28;44940;-66
2022/03/21 04:46:04;;;;;;;9.88;6.65;;;;;;;3.61;54.51;103138.59;2054563;28;20171;-66
2022/03/21 04:47:07;;;;;;;13.77;7.28;;;;;;;3.59;54.99;103137.66;2046864;28;45909;-66
2022/03/21 04:48:09;;;;;;;10.30;6.40;;;;;;;3.58;54.42;103143.78;2046757;28;44255;-66
2022/03/21 04:49:11;;;;;;;13.48;6.80;;;;;;;3.60;54.70;103147.38;2047115;28;45477;-66
2022/03/21 04:50:13;;;;;;;10.77;6.35;;;;;;;3.57;54.24;103139.28;2047045;28;46269;-66
2022/03/21 04:51:15;;;;;;;9.80;6.82;;;;;;;3.59;54.63;103150.91;2047385;28;39149;-66
2022/03/21 04:52:17;;;;;;;12.20;7.03;;;;;;;3.56;54.76;103143.69;2047048;28;45211;-66
2022/03/21 04:53:19;;;;;;;10.25;6.68;;;;;;;3.55;55.16;103147.22;2046527;28;45842;-66
2022/03/21 04:54:21;;;;;;;11.75;6.82;;;;;;;3.55;54.83;103148.94;2046485;28;45762;-66
2022/03/21 04:55:26;;;;;;;12.05;7.05;;;;;;;3.54;55.14;103145.38;2047197;28;20040;-66
2022/03/21 04:56:28;;;;;;;11.65;7.22;;;;;;;3.55;55.22;103141.91;2054370;28;33529;-66
2022/03/21 04:57:30;;;;;;;10.93;6.65;;;;;;;3.53;55.15;103143.56;2054453;28;45248;-66